Time;durP1;ratioP1;P1;durP2;ratioP2;P2;SDS_P1;SDS_P2;PMS_P1;PMS_P2;Temp;Humidity;BMP_temperature;BMP_pressure;BME280_temperature;BME280_humidity;BME280_pressure;Samples;Min_cycle;Max_cycle;Signal;HPM_P1;HPM_P2
2022/11/04 00:02:08;;;;;;;25.10;7.90;;;;;;;5.32;74.55;98708.84;5055407;28;20617;-48
2022/11/04 00:04:35;;;;;;;21.25;8.30;;;;;;;5.30;75.31;98701.16;5038500;28;20535;-46
2022/11/04 00:08:22;;;;;;;17.27;7.20;;;;;;;5.30;74.95;98703.72;5039681;28;20152;-48
2022/11/04 00:09:48;;;;;;;10.05;6.03;;;;;;;5.31;75.17;98713.16;5041260;28;20053;-48
2022/11/04 00:12:30;;;;;;;12.45;5.88;;;;;;;5.32;74.81;98708.84;5041302;28;20114;-47
2022/11/04 00:17:18;;;;;;;16.73;8.13;;;;;;;5.33;74.69;98711.41;5042208;28;20594;-49
2022/11/04 00:17:43;;;;;;;28.30;6.25;;;;;;;5.35;75.95;98721.69;5039806;28;20076;-48
2022/11/04 00:28:45;;;;;;;10.10;5.18;;;;;;;5.32;75.65;98734.53;5044148;28;20129;-50
2022/11/04 00:33:58;;;;;;;12.60;5.40;;;;;;;5.34;75.01;98754.19;5039612;28;20131;-48
2022/11/04 00:36:25;;;;;;;10.73;5.18;;;;;;;5.37;76.08;98758.50;5048586;28;20045;-45
2022/11/04 00:38:52;;;;;;;9.88;3.70;;;;;;;5.38;75.38;98755.91;5054667;28;20931;-51
2022/11/04 00:41:28;;;;;;;9.98;5.68;;;;;;;5.40;75.10;98754.19;5053325;28;20544;-47
2022/11/04 00:43:59;;;;;;;14.18;4.93;;;;;;;5.42;75.43;98767.03;5043680;28;20067;-51
2022/11/04 00:46:28;;;;;;;12.10;5.75;;;;;;;5.43;75.43;98762.75;5047034;28;20040;-47
2022/11/04 00:48:55;;;;;;;9.68;3.75;;;;;;;5.42;75.42;98761.91;5049313;28;20222;-45
2022/11/04 00:51:22;;;;;;;12.30;5.43;;;;;;;5.43;76.50;98773.03;5058433;28;20079;-45
2022/11/04 00:53:49;;;;;;;11.23;3.78;;;;;;;5.42;75.40;98767.03;5046989;28;20637;-48
2022/11/04 00:56:16;;;;;;;13.43;6.68;;;;;;;5.45;76.57;98768.75;5038641;28;20076;-47
2022/11/04 00:58:42;;;;;;;16.38;6.50;;;;;;;5.46;75.21;98773.00;5036987;28;20160;-53
2022/11/04 01:01:11;;;;;;;13.43;6.40;;;;;;;5.47;75.87;98790.16;5040249;28;20065;-46
2022/11/04 01:03:38;;;;;;;11.65;5.75;;;;;;;5.47;76.53;98790.97;5038790;28;20045;-50
2022/11/04 01:06:05;;;;;;;13.63;5.43;;;;;;;5.49;75.88;98801.25;5042442;28;20143;-49
2022/11/04 01:08:32;;;;;;;14.57;5.35;;;;;;;5.49;76.47;98803.81;5041403;28;20668;-45
2022/11/04 01:11:04;;;;;;;10.68;4.72;;;;;;;5.52;77.05;98808.97;5039042;28;20147;-48
2022/11/04 01:13:31;;;;;;;11.30;5.50;;;;;;;5.53;76.73;98808.09;5037682;28;20041;-44
2022/11/04 01:15:59;;;;;;;11.52;4.15;;;;;;;5.55;75.78;98814.09;5059110;28;20478;-51
2022/11/04 01:18:26;;;;;;;16.65;5.50;;;;;;;5.56;75.97;98810.66;5057043;28;20072;-50
2022/11/04 01:20:53;;;;;;;10.13;5.05;;;;;;;5.56;76.60;98815.78;5040924;28;20036;-49
2022/11/04 01:23:20;;;;;;;12.55;5.05;;;;;;;5.57;76.54;98822.63;5053881;28;20135;-51
2022/11/04 01:25:46;;;;;;;8.80;5.15;;;;;;;5.60;76.85;98832.91;5044242;28;20128;-48
2022/11/04 01:28:13;;;;;;;11.35;5.30;;;;;;;5.59;77.26;98836.34;5060854;28;20132;-44
2022/11/04 01:30:39;;;;;;;9.52;4.57;;;;;;;5.59;76.40;98838.91;5042898;28;20129;-52
2022/11/04 01:33:06;;;;;;;10.07;4.57;;;;;;;5.61;77.76;98844.06;5038487;28;20656;-47
2022/11/04 01:35:32;;;;;;;5.60;4.13;;;;;;;5.62;77.71;98851.75;5040478;28;20136;-49
2022/11/04 01:37:59;;;;;;;4.97;3.08;;;;;;;5.61;76.49;98860.31;5041807;28;20568;-47
2022/11/04 01:40:26;;;;;;;14.40;4.88;;;;;;;5.63;77.19;98860.31;5036863;28;20047;-45
2022/11/04 01:42:52;;;;;;;12.35;5.20;;;;;;;5.63;76.79;98866.31;5044584;28;20136;-49
2022/11/04 01:45:21;;;;;;;9.85;2.88;;;;;;;5.63;77.94;98879.16;5044404;28;20429;-45
2022/11/04 01:47:59;;;;;;;12.30;5.50;;;;;;;5.63;77.83;98881.72;5050788;28;20135;-51
2022/11/04 01:50:29;;;;;;;13.23;5.60;;;;;;;5.62;77.25;98885.16;5053373;28;20132;-48
2022/11/04 01:55:35;;;;;;;12.07;4.13;;;;;;;5.58;77.13;98905.69;5053871;28;20410;-44
2022/11/04 01:58:08;;;;;;;8.75;3.63;;;;;;;5.53;78.39;98908.25;4997836;28;20042;-50
2022/11/04 02:00:38;;;;;;;17.58;4.60;;;;;;;5.52;77.53;98911.69;4995424;28;20129;-50
2022/11/04 02:03:17;;;;;;;8.45;4.03;;;;;;;5.48;77.69;98913.44;4996353;28;20136;-46
2022/11/04 02:05:45;;;;;;;15.73;5.50;;;;;;;5.49;77.89;98924.53;4996513;28;20064;-47
2022/11/04 02:08:14;;;;;;;10.00;4.88;;;;;;;5.47;77.63;98918.56;5024361;28;20529;-43
2022/11/04 02:10:47;;;;;;;18.15;6.18;;;;;;;5.47;77.48;98923.69;4994440;28;20475;-47
2022/11/04 02:13:14;;;;;;;14.30;6.28;;;;;;;5.49;77.89;98927.09;4992222;28;20262;-51
2022/11/04 02:15:54;;;;;;;13.48;6.03;;;;;;;5.49;78.53;98929.69;4997757;28;20164;-49
2022/11/04 02:18:37;;;;;;;20.30;7.00;;;;;;;5.49;78.03;98945.09;4992584;28;20043;-51
2022/11/04 02:24:20;;;;;;;22.08;6.88;;;;;;;5.49;78.99;98952.78;5022695;28;21910;-50
2022/11/04 02:34:57;;;;;;;39.15;10.88;;;;;;;5.53;78.33;98980.19;5035060;28;20401;-49
2022/11/04 02:37:52;;;;;;;26.42;9.60;;;;;;;5.54;78.93;98989.59;4956442;28;20051;-48
2022/11/04 02:40:52;;;;;;;28.35;9.27;;;;;;;5.53;79.89;98988.75;4992602;28;20055;-46
2022/11/04 02:43:28;;;;;;;24.58;10.05;;;;;;;5.59;78.53;98993.03;4994528;28;20079;-46
2022/11/04 02:46:05;;;;;;;31.77;9.55;;;;;;;5.61;78.40;99003.31;4980029;28;20138;-48
2022/11/04 02:51:32;;;;;;;23.02;9.27;;;;;;;5.60;79.13;99010.16;5073689;27;20403;-52
2022/11/04 02:54:09;;;;;;;21.13;9.20;;;;;;;5.62;79.40;99016.16;5062702;28;20254;-46
2022/11/04 02:56:43;;;;;;;19.20;6.53;;;;;;;5.61;79.42;99011.88;5059680;28;20417;-51
2022/11/04 02:59:19;;;;;;;20.67;8.73;;;;;;;5.62;79.30;99016.16;5057823;28;20611;-47
2022/11/04 03:01:48;;;;;;;22.50;10.48;;;;;;;5.61;78.55;99019.56;5057806;28;20128;-45
2022/11/04 03:04:25;;;;;;;24.50;9.68;;;;;;;5.62;78.92;99031.59;5079610;28;20052;-49
2022/11/04 03:06:55;;;;;;;24.13;10.15;;;;;;;5.62;78.47;99031.59;5056292;28;20845;-48
2022/11/04 03:09:24;;;;;;;21.10;10.13;;;;;;;5.61;78.75;99029.84;5071535;28;20151;-50
2022/11/04 03:11:56;;;;;;;22.02;9.38;;;;;;;5.59;78.90;99036.72;5070500;28;20103;-46
2022/11/04 03:14:30;;;;;;;24.80;10.18;;;;;;;5.59;78.30;99036.72;5076633;28;20072;-50
2022/11/04 03:17:02;;;;;;;25.27;9.63;;;;;;;5.58;78.33;99035.00;5061626;28;20074;-46
2022/11/04 03:19:54;;;;;;;24.30;9.02;;;;;;;5.53;77.94;99042.69;5072925;28;20135;-49
2022/11/04 03:22:24;;;;;;;26.30;10.50;;;;;;;5.55;78.00;99041.84;5081094;28;20518;-48
2022/11/04 03:24:51;;;;;;;;;;;;;;;5.47;78.31;99036.69;5078000;28;20044;-48
2022/11/04 03:30:01;;;;;;;22.38;9.25;;;;;;;5.51;78.75;99043.56;5031454;27;20402;-54
2022/11/04 03:32:56;;;;;;;19.25;7.68;;;;;;;5.50;78.65;99052.09;5015735;28;20056;-48
2022/11/04 03:35:23;;;;;;;21.77;6.85;;;;;;;5.45;78.12;99044.41;5014380;28;20041;-48
2022/11/04 03:37:50;;;;;;;20.38;6.97;;;;;;;5.45;77.85;99048.66;5020114;28;20125;-52
2022/11/04 03:40:18;;;;;;;24.65;7.38;;;;;;;5.42;78.44;99058.94;5014214;28;20053;-46
2022/11/04 03:43:24;;;;;;;25.50;7.82;;;;;;;5.36;78.34;99059.78;5015193;28;20060;-50
2022/11/04 03:45:51;;;;;;;17.80;6.72;;;;;;;5.33;77.88;99065.75;5004313;28;20136;-45
2022/11/04 03:48:18;;;;;;;19.17;6.50;;;;;;;5.30;77.99;99068.31;5016333;28;20078;-49
2022/11/04 03:50:46;;;;;;;16.35;6.82;;;;;;;5.27;78.42;99073.47;5010763;28;20086;-51
2022/11/04 03:53:19;;;;;;;20.08;6.95;;;;;;;5.26;77.97;99075.16;5014981;28;20081;-50
2022/11/04 04:01:24;;;;;;;15.35;5.65;;;;;;;5.23;78.52;99107.66;5063741;27;20405;-50
2022/11/04 04:04:04;;;;;;;20.60;6.60;;;;;;;5.23;79.25;99097.38;5059447;28;20059;-52
2022/11/04 04:06:34;;;;;;;19.83;5.88;;;;;;;5.22;78.75;99098.25;5055767;28;20485;-51
2022/11/04 04:09:23;;;;;;;21.75;6.57;;;;;;;5.18;79.39;99105.09;5053886;28;20050;-48
2022/11/04 04:14:47;;;;;;;35.40;12.38;;;;;;;5.57;77.67;99114.63;5067508;27;20404;-47
2022/11/04 04:17:39;;;;;;;27.90;10.23;;;;;;;5.20;79.26;99118.78;5037306;28;20069;-44
2022/11/04 04:20:13;;;;;;;17.77;8.98;;;;;;;5.14;79.45;99132.44;5037807;28;20068;-48
2022/11/04 04:22:47;;;;;;;17.17;8.27;;;;;;;5.09;80.47;99123.88;5038113;28;20127;-47
2022/11/04 04:28:03;;;;;;;21.75;7.72;;;;;;;5.06;80.79;99140.97;5037916;28;20132;-52
2022/11/04 04:30:30;;;;;;;13.50;5.05;;;;;;;5.02;81.12;99147.78;5073171;28;20127;-48
2022/11/04 04:33:03;;;;;;;18.42;6.90;;;;;;;5.04;80.67;99151.22;5076591;28;20041;-52
2022/11/04 04:35:41;;;;;;;18.85;8.70;;;;;;;5.03;80.80;99152.06;5074433;28;20139;-48
2022/11/04 04:46:36;;;;;;;20.88;6.20;;;;;;;5.02;80.63;99178.59;5057944;28;20135;-48
2022/11/04 04:49:06;;;;;;;15.70;6.85;;;;;;;5.02;80.35;99188.84;5050844;28;20141;-48
2022/11/04 04:51:37;;;;;;;15.32;7.18;;;;;;;5.02;80.10;99199.13;5054852;28;20114;-47
2022/11/04 04:54:04;;;;;;;12.30;5.03;;;;;;;5.01;80.75;99205.09;5051527;28;20055;-48
2022/11/04 04:56:30;;;;;;;15.90;5.97;;;;;;;4.99;80.23;99214.50;5047193;28;20048;-48
2022/11/04 04:58:57;;;;;;;13.68;4.80;;;;;;;5.03;80.80;99216.22;5039218;28;20132;-46
2022/11/04 05:01:23;;;;;;;20.05;5.88;;;;;;;5.01;81.11;99217.94;5037459;28;20136;-53
2022/11/04 05:03:50;;;;;;;15.60;5.07;;;;;;;5.02;80.49;99219.66;5040066;28;20053;-50
2022/11/04 05:06:17;;;;;;;15.15;5.70;;;;;;;5.04;80.78;99223.09;5037480;28;20053;-48
2022/11/04 05:08:43;;;;;;;14.38;5.43;;;;;;;5.04;80.60;99228.22;5049702;28;20068;-46
2022/11/04 05:11:10;;;;;;;12.60;3.90;;;;;;;5.01;81.25;99234.19;5057418;28;20041;-47
2022/11/04 05:13:37;;;;;;;13.38;5.53;;;;;;;5.03;81.39;99236.75;5054607;28;20127;-47
2022/11/04 05:16:07;;;;;;;10.73;4.88;;;;;;;5.04;80.86;99238.50;5054969;28;20135;-47
2022/11/04 05:18:34;;;;;;;;;;;;;;;4.98;81.45;99238.44;5042279;28;20053;-48
2022/11/04 05:21:04;;;;;;;12.40;5.30;;;;;;;5.04;80.60;99248.78;5051480;28;19948;-47
2022/11/04 05:23:31;;;;;;;21.95;5.60;;;;;;;5.04;80.59;99264.16;5058450;28;20043;-49
2022/11/04 05:25:58;;;;;;;22.33;5.63;;;;;;;5.05;80.97;99270.13;5059783;28;20057;-44
2022/11/04 05:28:25;;;;;;;11.00;4.25;;;;;;;5.05;81.35;99276.16;5058859;28;20637;-48
2022/11/04 05:30:51;;;;;;;14.93;5.28;;;;;;;5.07;80.85;99291.56;5058188;28;20139;-48
2022/11/04 05:33:18;;;;;;;12.25;4.38;;;;;;;5.05;81.00;99296.69;5050025;28;20053;-44
2022/11/04 05:35:44;;;;;;;15.95;4.88;;;;;;;5.07;81.11;99302.66;5055801;28;20139;-51
2022/11/04 05:38:11;;;;;;;16.40;5.55;;;;;;;5.06;80.39;99311.22;5059462;28;20041;-45
2022/11/04 05:40:38;;;;;;;14.27;4.97;;;;;;;5.05;80.56;99312.09;5061134;28;20123;-49
2022/11/04 05:43:04;;;;;;;19.85;5.97;;;;;;;5.03;80.88;99321.47;5048061;28;20608;-47
2022/11/04 05:45:31;;;;;;;14.30;4.78;;;;;;;5.00;80.49;99318.91;5058013;28;20055;-48
2022/11/04 05:48:00;;;;;;;14.30;4.97;;;;;;;4.99;80.68;99317.16;5060797;28;20040;-48
2022/11/04 05:50:29;;;;;;;18.73;6.40;;;;;;;4.96;80.05;99324.84;5048971;28;20096;-51
2022/11/04 05:52:57;;;;;;;15.48;6.32;;;;;;;4.96;79.96;99332.56;5026958;28;20323;-48
2022/11/04 05:55:24;;;;;;;13.50;5.00;;;;;;;4.92;80.92;99341.03;5033437;28;20219;-46
2022/11/04 05:57:51;;;;;;;16.90;6.20;;;;;;;4.93;80.60;99337.66;5034584;28;20037;-44
2022/11/04 06:00:18;;;;;;;16.20;5.32;;;;;;;4.93;80.40;99353.06;5041825;28;20132;-48
2022/11/04 06:02:45;;;;;;;17.20;5.82;;;;;;;4.92;80.33;99356.44;5038334;28;20080;-47
2022/11/04 06:05:12;;;;;;;12.65;5.32;;;;;;;4.93;80.82;99360.75;5019883;28;20541;-49
2022/11/04 06:07:38;;;;;;;15.52;5.20;;;;;;;4.94;80.16;99375.28;5027707;28;20077;-50
2022/11/04 06:10:05;;;;;;;11.88;4.70;;;;;;;4.92;80.15;99385.53;5041686;28;20084;-51
2022/11/04 06:12:32;;;;;;;15.45;4.38;;;;;;;4.91;80.12;99385.53;5033070;28;20100;-51
2022/11/04 06:14:58;;;;;;;13.80;4.47;;;;;;;4.90;79.85;99400.06;5037605;28;20047;-47
2022/11/04 06:17:25;;;;;;;18.20;4.22;;;;;;;4.88;79.99;99402.63;5042783;28;20123;-45
2022/11/04 06:19:52;;;;;;;13.57;4.70;;;;;;;4.89;79.89;99414.59;5039761;28;20128;-46
2022/11/04 06:22:18;;;;;;;12.93;3.65;;;;;;;4.88;80.57;99414.59;5042178;28;20513;-46
2022/11/04 06:24:45;;;;;;;8.85;3.28;;;;;;;4.88;80.49;99420.59;5043698;28;20147;-49
2022/11/04 06:27:12;;;;;;;11.23;3.38;;;;;;;4.91;80.86;99421.44;5040416;28;20041;-53
2022/11/04 06:29:40;;;;;;;14.73;4.13;;;;;;;4.91;80.70;99418.88;5032652;28;20065;-49
2022/11/04 06:32:08;;;;;;;11.40;3.58;;;;;;;4.91;80.38;99413.75;5019015;28;20504;-49
2022/11/04 06:34:35;;;;;;;10.15;3.85;;;;;;;4.91;79.98;99424.00;5045586;28;20132;-44
2022/11/04 06:37:02;;;;;;;13.40;3.42;;;;;;;4.89;80.13;99424.88;5046911;28;20132;-49
2022/11/04 06:39:28;;;;;;;13.05;3.50;;;;;;;4.89;79.81;99418.88;5033207;28;20462;-52
2022/11/04 06:41:55;;;;;;;6.50;3.45;;;;;;;4.88;79.94;99428.28;5038653;28;20057;-47
2022/11/04 06:44:26;;;;;;;11.93;5.10;;;;;;;4.88;80.21;99428.28;5040945;28;20051;-51
2022/11/04 06:46:53;;;;;;;11.85;3.55;;;;;;;4.86;80.50;99432.53;5042307;28;20633;-50
2022/11/04 06:49:22;;;;;;;15.77;3.97;;;;;;;4.85;80.30;99435.94;5040141;28;20128;-45
2022/11/04 06:51:49;;;;;;;13.45;4.22;;;;;;;4.84;79.75;99438.50;5024235;28;20467;-54
2022/11/04 06:54:16;;;;;;;8.65;3.63;;;;;;;4.80;79.54;99440.16;5027178;28;20059;-46
2022/11/04 06:56:43;;;;;;;10.77;3.42;;;;;;;4.79;79.42;99448.69;5024168;28;20119;-50
2022/11/04 06:59:19;;;;;;;13.52;3.92;;;;;;;4.75;80.30;99459.78;5026968;28;20099;-52
2022/11/04 07:01:48;;;;;;;11.55;4.50;;;;;;;4.74;79.92;99465.75;5039065;28;20128;-47
2022/11/04 07:04:15;;;;;;;9.98;3.83;;;;;;;4.72;79.54;99470.00;5071115;28;20083;-48
2022/11/04 07:06:42;;;;;;;19.23;3.55;;;;;;;4.69;79.75;99480.25;5028255;28;20056;-52
2022/11/04 07:09:12;;;;;;;11.68;3.95;;;;;;;4.68;79.50;99481.06;5034254;28;20037;-45
2022/11/04 07:11:40;;;;;;;9.77;3.72;;;;;;;4.67;80.03;99476.78;5037522;28;20127;-49
2022/11/04 07:14:07;;;;;;;10.45;4.32;;;;;;;4.66;80.29;99487.91;5040082;28;20099;-50
2022/11/04 07:16:34;;;;;;;15.68;5.03;;;;;;;4.65;79.71;99496.41;5030856;28;20101;-44
2022/11/04 07:19:01;;;;;;;9.88;3.83;;;;;;;4.65;80.31;99506.66;5036767;28;20053;-45
2022/11/04 07:21:28;;;;;;;15.38;3.75;;;;;;;4.62;79.91;99503.25;5044392;28;20095;-48
2022/11/04 07:23:55;;;;;;;10.30;3.83;;;;;;;4.63;79.49;99515.22;5044000;28;20077;-51
2022/11/04 07:26:22;;;;;;;15.07;4.28;;;;;;;4.63;79.64;99520.34;5040618;28;20080;-46
2022/11/04 07:28:48;;;;;;;13.35;4.03;;;;;;;4.66;79.83;99531.50;5043460;28;20055;-48
2022/11/04 07:31:16;;;;;;;12.70;4.38;;;;;;;4.67;79.80;99535.78;5044454;28;20044;-49
2022/11/04 07:33:48;;;;;;;11.35;3.85;;;;;;;4.71;79.69;99529.84;5040591;28;20052;-50
2022/11/04 07:36:16;;;;;;;13.00;4.10;;;;;;;4.76;80.22;99546.16;5041849;28;20045;-48
2022/11/04 07:38:42;;;;;;;11.43;3.90;;;;;;;4.80;79.38;99535.09;5045277;28;20100;-49
2022/11/04 07:41:09;;;;;;;11.15;4.35;;;;;;;5.02;80.39;99543.06;5029410;28;20045;-46
2022/11/04 07:43:36;;;;;;;16.20;4.32;;;;;;;5.35;79.90;99541.72;5033246;28;20072;-49
2022/11/04 07:46:06;;;;;;;12.15;4.25;;;;;;;5.81;78.94;99550.69;5041125;28;20073;-48
2022/11/04 07:48:35;;;;;;;14.70;3.92;;;;;;;6.25;77.92;99545.94;5039901;28;20068;-49
2022/11/04 07:51:03;;;;;;;14.52;4.03;;;;;;;6.58;77.88;99543.56;5042597;28;20075;-48
2022/11/04 07:53:30;;;;;;;12.18;4.35;;;;;;;6.99;76.33;99555.75;5035019;28;20555;-49
2022/11/04 07:55:57;;;;;;;12.77;3.40;;;;;;;7.45;75.98;99555.06;5027413;28;20501;-47
2022/11/04 07:58:24;;;;;;;15.30;4.75;;;;;;;8.03;76.03;99557.69;5041433;28;20068;-49
2022/11/04 08:00:58;;;;;;;13.77;4.00;;;;;;;8.68;74.26;99572.22;5043362;28;20064;-49
2022/11/04 08:03:25;;;;;;;10.57;3.88;;;;;;;9.34;73.43;99577.16;5038735;28;20142;-49
2022/11/04 08:05:58;;;;;;;10.10;3.70;;;;;;;9.90;72.66;99582.00;5042068;28;20053;-51
2022/11/04 08:08:26;;;;;;;12.82;3.95;;;;;;;10.39;70.74;99585.00;5029216;28;20133;-51
2022/11/04 08:10:55;;;;;;;18.15;4.85;;;;;;;10.86;69.92;99589.75;5017529;28;20140;-46
2022/11/04 08:13:26;;;;;;;10.43;4.40;;;;;;;11.19;68.91;99585.03;5035911;28;20485;-51
2022/11/04 08:15:52;;;;;;;;;;;;;;;11.07;65.97;99593.81;5022859;28;20091;-48
2022/11/04 08:18:19;;;;;;;14.95;4.43;;;;;;;11.25;66.73;99592.72;5036825;28;20028;-51
2022/11/04 08:20:48;;;;;;;15.13;4.35;;;;;;;11.14;66.67;99599.78;5042501;28;20049;-49
2022/11/04 08:23:16;;;;;;;14.10;4.68;;;;;;;10.97;67.67;99608.63;5035195;28;20136;-48
2022/11/04 08:25:43;;;;;;;14.15;4.68;;;;;;;10.97;68.39;99613.81;5040685;28;20048;-48
2022/11/04 08:28:16;;;;;;;5.38;2.95;;;;;;;11.23;69.44;99619.56;5034603;28;20053;-48
2022/11/04 08:31:05;;;;;;;14.18;4.50;;;;;;;11.68;68.37;99624.16;5039140;28;20084;-47
2022/11/04 08:33:34;;;;;;;10.65;3.70;;;;;;;12.19;68.99;99617.34;5039681;28;20135;-50
2022/11/04 08:36:05;;;;;;;10.23;4.50;;;;;;;12.79;67.32;99623.25;5034411;28;20076;-46
2022/11/04 08:38:33;;;;;;;8.20;3.25;;;;;;;13.33;66.94;99629.13;5039453;28;20059;-55
2022/11/04 08:41:03;;;;;;;16.13;3.97;;;;;;;13.69;65.27;99625.81;5032500;28;20049;-50
2022/11/04 08:43:30;;;;;;;9.15;3.80;;;;;;;14.13;64.78;99627.41;5041055;28;20147;-50
2022/11/04 08:45:57;;;;;;;11.73;4.05;;;;;;;14.55;63.27;99623.75;5023013;28;20556;-50
2022/11/04 08:48:24;;;;;;;12.43;5.43;;;;;;;15.02;62.72;99630.34;5038894;28;20049;-54
2022/11/04 08:50:53;;;;;;;14.45;4.03;;;;;;;15.55;62.12;99632.31;5025955;28;20544;-47
2022/11/04 08:53:20;;;;;;;10.25;3.53;;;;;;;16.03;60.77;99639.59;5011098;28;20049;-52
2022/11/04 08:55:48;;;;;;;9.38;3.85;;;;;;;16.43;59.38;99637.44;5016683;28;20515;-50
2022/11/04 08:58:15;;;;;;;9.50;3.70;;;;;;;16.87;59.57;99636.81;5033461;28;20132;-50
2022/11/04 09:00:42;;;;;;;12.02;4.07;;;;;;;17.35;58.19;99642.09;5030575;28;20139;-54
2022/11/04 09:03:09;;;;;;;12.23;4.47;;;;;;;17.77;57.21;99650.13;5037440;28;20045;-49
2022/11/04 09:05:44;;;;;;;12.45;3.65;;;;;;;18.12;56.10;99642.66;5042610;28;20084;-52
2022/11/04 09:08:12;;;;;;;9.43;4.03;;;;;;;18.52;55.45;99645.41;5035483;28;20132;-47
2022/11/04 09:10:42;;;;;;;9.00;4.03;;;;;;;18.84;54.16;99647.53;5027833;28;20720;-50
2022/11/04 09:13:10;;;;;;;10.73;3.72;;;;;;;19.15;53.83;99640.94;5023652;28;20544;-53
2022/11/04 09:15:37;;;;;;;13.02;3.45;;;;;;;19.51;52.50;99644.59;5035302;28;20049;-55
2022/11/04 09:18:04;;;;;;;7.95;2.85;;;;;;;19.78;52.30;99652.09;5037831;28;20049;-51
2022/11/04 09:20:31;;;;;;;7.65;3.30;;;;;;;20.07;52.23;99655.13;5039375;28;20053;-54
2022/11/04 09:22:58;;;;;;;8.30;3.90;;;;;;;20.47;51.59;99660.19;5036929;28;20125;-53
2022/11/04 09:25:24;;;;;;;11.15;2.88;;;;;;;20.87;50.82;99661.72;5017041;28;20123;-51
2022/11/04 09:27:51;;;;;;;6.43;2.88;;;;;;;21.18;50.41;99665.41;5039481;28;20045;-53
2022/11/04 09:30:18;;;;;;;9.10;3.28;;;;;;;21.40;49.45;99674.75;5025501;28;20087;-53
2022/11/04 09:32:44;;;;;;;11.57;2.80;;;;;;;21.55;47.89;99679.19;5032575;28;20184;-53
2022/11/04 09:35:18;;;;;;;8.13;2.85;;;;;;;21.75;48.18;99685.19;5047438;28;20044;-59
2022/11/04 09:37:45;;;;;;;8.85;3.95;;;;;;;21.91;47.57;99685.19;5048836;28;20552;-50
2022/11/04 09:40:15;;;;;;;8.40;3.60;;;;;;;22.07;47.12;99690.44;5043340;28;20132;-50
2022/11/04 09:45:45;;;;;;;8.95;3.05;;;;;;;22.17;45.50;99700.47;5017722;27;20411;-50
2022/11/04 09:48:25;;;;;;;10.20;3.83;;;;;;;22.29;46.37;99702.38;5013036;28;20100;-53
2022/11/04 09:50:57;;;;;;;11.63;3.20;;;;;;;22.29;44.63;99702.38;5014530;28;20148;-51
2022/11/04 09:56:10;;;;;;;8.73;3.90;;;;;;;22.26;44.38;99705.19;5045490;28;20391;-55
2022/11/04 09:58:38;;;;;;;6.90;2.80;;;;;;;22.07;43.28;99711.53;5059238;28;20048;-53
2022/11/04 10:01:19;;;;;;;7.15;3.22;;;;;;;21.98;43.79;99706.78;5057985;28;20052;-57
2022/11/04 10:22:48;;;;;;;7.38;2.60;;;;;;;21.92;42.48;99744.03;5096512;27;20396;-52
2022/11/04 10:25:23;;;;;;;6.45;2.00;;;;;;;21.48;41.70;99750.75;5039254;28;20049;-57
2022/11/04 10:27:51;;;;;;;7.45;2.30;;;;;;;20.84;42.36;99752.19;5034709;28;20057;-56
2022/11/04 10:33:02;;;;;;;4.75;2.95;;;;;;;19.32;44.34;99749.63;5032509;28;20421;-51
2022/11/04 10:35:50;;;;;;;8.02;2.13;;;;;;;18.70;46.42;99758.31;5018582;28;20085;-50
2022/11/04 10:38:23;;;;;;;6.80;2.35;;;;;;;18.11;47.22;99757.09;5015508;28;20049;-48
2022/11/04 10:40:53;;;;;;;4.15;1.88;;;;;;;17.53;47.34;99765.38;5031975;28;20168;-53
2022/11/04 10:43:38;;;;;;;5.70;1.55;;;;;;;16.79;48.17;99769.59;5016145;28;20052;-54
2022/11/04 10:46:37;;;;;;;4.43;2.08;;;;;;;16.44;49.26;99773.31;5016697;28;20080;-52
2022/11/04 10:52:09;;;;;;;5.55;3.30;;;;;;;15.71;51.60;99779.81;5001056;28;20418;-49
2022/11/04 10:54:43;;;;;;;7.70;3.17;;;;;;;15.47;52.20;99782.22;4977282;28;20046;-54
2022/11/04 10:57:12;;;;;;;10.40;3.33;;;;;;;15.33;52.76;99786.03;4992967;28;20052;-52
2022/11/04 11:02:38;;;;;;;4.05;2.08;;;;;;;14.85;53.53;99782.91;5043877;27;20414;-53
2022/11/04 11:05:25;;;;;;;6.95;2.08;;;;;;;14.53;54.66;99784.50;5018612;28;20129;-51
2022/11/04 11:07:55;;;;;;;4.93;1.75;;;;;;;14.45;54.57;99781.22;5016438;28;20073;-55
2022/11/04 11:10:28;;;;;;;;;;;;;;;14.12;55.92;99785.41;5029034;28;20046;-52
2022/11/04 11:15:34;;;;;;;6.13;1.65;;;;;;;14.00;55.93;99783.94;5048004;27;20950;-50
2022/11/04 11:18:20;;;;;;;1.85;0.85;;;;;;;13.73;56.68;99782.75;5036686;28;20091;-52
2022/11/04 11:20:50;;;;;;;3.20;1.75;;;;;;;13.72;57.18;99786.25;5031869;28;20088;-51
2022/11/04 11:23:38;;;;;;;3.30;1.25;;;;;;;13.42;57.94;99791.09;5045152;28;20234;-51
2022/11/04 11:26:09;;;;;;;4.35;1.33;;;;;;;13.37;57.25;99792.06;5051412;28;20080;-53
2022/11/04 11:28:38;;;;;;;1.75;0.68;;;;;;;13.23;57.78;99794.03;5034210;28;20564;-54
2022/11/04 11:31:13;;;;;;;6.13;2.30;;;;;;;13.09;58.60;99791.69;5035426;28;20084;-50
2022/11/04 11:33:47;;;;;;;7.05;1.30;;;;;;;12.98;58.66;99800.50;5033397;28;20168;-52
2022/11/04 11:36:20;;;;;;;6.40;2.25;;;;;;;12.92;59.18;99798.03;5032321;28;20045;-50
2022/11/04 11:39:14;;;;;;;3.28;1.27;;;;;;;12.83;58.47;99795.56;5033345;28;20413;-50
2022/11/04 11:47:37;;;;;;;3.67;1.30;;;;;;;12.67;60.17;99813.16;5057524;27;20391;-50
2022/11/04 11:52:42;;;;;;;1.63;0.80;;;;;;;12.51;60.83;99800.41;5048672;28;20400;-49
2022/11/04 11:55:32;;;;;;;5.20;1.67;;;;;;;12.49;60.95;99815.13;5018621;28;20516;-50
2022/11/04 11:58:25;;;;;;;7.50;1.83;;;;;;;12.43;60.64;99812.66;5012163;28;20060;-48
2022/11/04 12:01:33;;;;;;;3.75;1.13;;;;;;;12.41;60.69;99814.41;5013921;28;20630;-49
2022/11/04 12:04:00;;;;;;;5.18;1.42;;;;;;;12.42;61.63;99813.50;5015042;28;20058;-51
2022/11/04 12:14:54;;;;;;;2.78;1.30;;;;;;;12.24;61.83;99807.69;5039860;28;20790;-49
2022/11/04 12:31:50;;;;;;;2.90;0.68;;;;;;;12.01;61.41;99821.81;5037265;28;20420;-53
2022/11/04 12:34:34;;;;;;;1.88;0.90;;;;;;;11.97;60.79;99840.88;5028942;28;20056;-49
2022/11/04 12:39:55;;;;;;;3.63;0.60;;;;;;;11.94;60.44;99840.91;5017879;27;20426;-51
2022/11/04 12:51:06;;;;;;;4.25;0.70;;;;;;;11.75;60.10;99859.28;5016636;28;20414;-48
2022/11/04 12:53:47;;;;;;;3.55;0.95;;;;;;;11.75;61.46;99856.69;4997432;28;20137;-49
2022/11/04 12:56:17;;;;;;;5.25;0.70;;;;;;;11.80;61.33;99864.44;5002034;28;20112;-50
2022/11/04 13:01:33;;;;;;;5.30;0.95;;;;;;;11.72;60.75;99861.91;5043017;28;20391;-50
2022/11/04 13:04:08;;;;;;;3.55;1.38;;;;;;;11.71;61.80;99860.19;5060907;28;20064;-46
2022/11/04 13:15:03;;;;;;;4.18;1.33;;;;;;;11.87;61.74;99860.03;5031245;27;20407;-55
2022/11/04 13:17:33;;;;;;;4.40;2.42;;;;;;;11.73;62.40;99868.84;5032817;28;20076;-50
2022/11/04 13:20:26;;;;;;;5.43;2.42;;;;;;;11.57;62.31;99874.19;5018378;28;20135;-50
2022/11/04 13:22:59;;;;;;;5.55;2.80;;;;;;;11.63;61.94;99867.19;5010289;28;20054;-48
2022/11/04 13:25:38;;;;;;;3.88;2.28;;;;;;;11.66;62.09;99873.22;5017179;28;20144;-52
2022/11/04 13:28:12;;;;;;;8.55;2.30;;;;;;;11.64;63.18;99879.28;5009274;28;20137;-52
2022/11/04 13:36:21;;;;;;;2.67;1.25;;;;;;;11.62;63.15;99881.91;5015732;28;20417;-50
2022/11/04 13:38:55;;;;;;;4.00;1.50;;;;;;;11.71;62.71;99883.53;5013673;28;20172;-52
2022/11/04 13:44:19;;;;;;;2.15;1.27;;;;;;;11.74;63.26;99865.34;5047621;28;20398;-49
2022/11/04 13:46:49;;;;;;;3.17;0.93;;;;;;;11.76;62.61;99853.22;5016826;28;20136;-42
2022/11/04 13:49:19;;;;;;;;;;;;;;;11.64;63.29;99850.75;5016808;28;20081;-44
2022/11/04 13:51:55;;;;;;;;;;;;;;;11.64;64.53;99853.34;5014523;28;20683;-55
2022/11/04 13:54:28;;;;;;;5.32;1.17;;;;;;;11.80;64.31;99854.06;5010601;28;20396;-52
2022/11/04 13:57:06;;;;;;;6.50;1.65;;;;;;;11.87;64.08;99860.03;5018504;28;20148;-44
2022/11/04 13:59:33;;;;;;;2.38;0.95;;;;;;;11.92;63.40;99879.03;5014804;28;20133;-45
2022/11/04 14:04:56;;;;;;;4.13;1.77;;;;;;;11.91;63.55;99872.97;5104061;27;21318;-48
2022/11/04 14:16:31;;;;;;;3.25;1.90;;;;;;;11.91;62.65;99887.66;5008954;27;20939;-50
2022/11/04 14:19:40;;;;;;;0.95;0.85;;;;;;;11.90;62.54;99898.94;5009760;28;20445;-48
2022/11/04 14:22:14;;;;;;;2.45;1.58;;;;;;;11.96;61.58;99891.09;5012513;28;20073;-45
2022/11/04 14:24:41;;;;;;;1.88;1.65;;;;;;;12.01;63.20;99902.28;5011335;28;20076;-50
2022/11/04 14:27:33;;;;;;;2.20;2.00;;;;;;;12.00;62.37;99908.34;5013226;28;20068;-47
2022/11/04 14:30:00;;;;;;;1.50;1.40;;;;;;;12.01;61.96;99910.06;5011320;28;20054;-43
2022/11/04 14:32:33;;;;;;;2.88;1.67;;;;;;;11.95;62.68;99915.31;5011543;28;20049;-45
2022/11/04 14:35:03;;;;;;;2.25;1.40;;;;;;;11.92;62.80;99918.78;5012363;28;20057;-51